createdAt,value
2023-11-14T00:01:31.408Z,4.81
2023-11-14T00:03:59.185Z,4.82
2023-11-14T00:06:26.869Z,4.84
2023-11-14T00:08:55.462Z,4.84
2023-11-14T00:11:25.463Z,4.82
2023-11-14T00:13:53.198Z,4.80
2023-11-14T00:16:21.064Z,4.79
2023-11-14T00:18:48.834Z,4.79
2023-11-14T00:21:16.573Z,4.78
2023-11-14T00:23:44.718Z,4.76
2023-11-14T00:26:12.399Z,4.76
2023-11-14T00:28:40.813Z,4.76
2023-11-14T00:31:09.021Z,4.76
2023-11-14T00:33:36.708Z,4.77
2023-11-14T00:36:05.439Z,4.78
2023-11-14T00:38:33.126Z,4.78
2023-11-14T00:41:02.882Z,4.75
2023-11-14T00:43:30.904Z,4.73
2023-11-14T00:45:58.670Z,4.72
2023-11-14T00:48:27.173Z,4.71
2023-11-14T00:50:55.439Z,4.71
2023-11-14T00:53:23.131Z,4.70
2023-11-14T00:55:51.553Z,4.70
2023-11-14T00:58:19.382Z,4.70
2023-11-14T01:00:47.642Z,4.69
2023-11-14T01:03:15.943Z,4.70
2023-11-14T01:05:43.703Z,4.70
2023-11-14T01:08:11.627Z,4.68
2023-11-14T01:10:39.439Z,4.67
2023-11-14T01:13:07.190Z,4.66
2023-11-14T01:15:34.902Z,4.66
2023-11-14T01:18:02.660Z,4.64
2023-11-14T01:20:30.512Z,4.62
2023-11-14T01:22:58.452Z,4.61
2023-11-14T01:25:27.511Z,4.62
2023-11-14T01:27:55.224Z,4.62
2023-11-14T01:30:22.938Z,4.61
2023-11-14T01:32:51.009Z,4.59
2023-11-14T01:35:18.672Z,4.59
2023-11-14T01:37:46.343Z,4.57
2023-11-14T01:40:14.718Z,4.56
2023-11-14T01:42:42.542Z,4.54
2023-11-14T01:45:10.519Z,4.52
2023-11-14T01:47:38.369Z,4.50
2023-11-14T01:50:07.191Z,4.48
2023-11-14T01:52:36.171Z,4.43
2023-11-14T01:55:05.070Z,4.39
2023-11-14T01:57:33.229Z,4.35
2023-11-14T02:00:02.567Z,4.32
2023-11-14T02:02:41.840Z,4.31
2023-11-14T02:05:10.578Z,4.29
2023-11-14T02:07:41.098Z,4.29
2023-11-14T02:10:09.521Z,4.27
2023-11-14T02:12:37.817Z,4.26
2023-11-14T02:15:07.076Z,4.25
2023-11-14T02:17:34.848Z,4.24
2023-11-14T02:20:03.906Z,4.23
2023-11-14T02:22:31.834Z,4.23
2023-11-14T02:24:59.779Z,4.21
2023-11-14T02:27:27.588Z,4.19
2023-11-14T02:29:55.569Z,4.15
2023-11-14T02:32:23.343Z,4.12
2023-11-14T02:34:54.167Z,4.09
2023-11-14T02:37:22.366Z,4.06
2023-11-14T02:39:50.035Z,4.02
2023-11-14T02:42:18.192Z,4.00
2023-11-14T02:44:47.481Z,3.97
2023-11-14T02:47:15.258Z,3.94
2023-11-14T02:49:52.209Z,3.92
2023-11-14T02:52:20.561Z,3.87
2023-11-14T02:54:48.211Z,3.84
2023-11-14T02:57:15.845Z,3.83
2023-11-14T02:59:43.478Z,3.83
2023-11-14T03:02:11.227Z,3.82
2023-11-14T03:04:39.013Z,3.79
2023-11-14T03:07:06.895Z,3.74
2023-11-14T03:09:34.798Z,3.70
2023-11-14T03:12:02.734Z,3.65
2023-11-14T03:14:30.435Z,3.61
2023-11-14T03:16:58.271Z,3.56
2023-11-14T03:19:26.034Z,3.52
2023-11-14T03:21:53.687Z,3.48
2023-11-14T03:24:22.504Z,3.44
2023-11-14T03:26:50.838Z,3.37
2023-11-14T03:29:18.504Z,3.29
2023-11-14T03:31:46.250Z,3.21
2023-11-14T03:34:13.980Z,3.09
2023-11-14T03:36:41.665Z,2.96
2023-11-14T03:39:09.338Z,2.88
2023-11-14T03:41:37.021Z,2.83
2023-11-14T03:44:04.886Z,2.74
2023-11-14T03:46:33.032Z,2.63
2023-11-14T03:49:00.807Z,2.59
2023-11-14T03:51:28.528Z,2.55
2023-11-14T03:53:56.197Z,2.52
2023-11-14T03:56:23.849Z,2.44
2023-11-14T03:58:51.644Z,2.35
2023-11-14T04:01:19.323Z,2.26
2023-11-14T04:03:47.068Z,2.15
2023-11-14T04:06:16.133Z,2.07
2023-11-14T04:08:43.834Z,2.02
2023-11-14T04:11:14.540Z,1.97
2023-11-14T04:13:42.524Z,1.94
2023-11-14T04:16:10.822Z,1.91
2023-11-14T04:18:39.859Z,1.84
2023-11-14T04:21:07.861Z,1.78
2023-11-14T04:23:36.311Z,1.72
2023-11-14T04:26:04.150Z,1.65
2023-11-14T04:28:33.064Z,1.60
2023-11-14T04:31:00.841Z,1.56
2023-11-14T04:33:28.570Z,1.53
2023-11-14T04:35:56.293Z,1.49
2023-11-14T04:38:24.683Z,1.47
2023-11-14T04:40:54.811Z,1.46
2023-11-14T04:43:22.533Z,1.45
2023-11-14T04:45:50.190Z,1.46
2023-11-14T04:48:17.961Z,1.49
2023-11-14T04:50:45.639Z,1.51
2023-11-14T04:53:13.379Z,1.56
2023-11-14T04:55:44.128Z,1.64
2023-11-14T04:58:11.780Z,1.71
2023-11-14T05:00:40.375Z,1.76
2023-11-14T05:03:08.263Z,1.79
2023-11-14T05:05:36.644Z,1.84
2023-11-14T05:08:04.807Z,1.90
2023-11-14T05:10:32.483Z,1.96
2023-11-14T05:13:00.836Z,2.02
2023-11-14T05:15:28.661Z,2.10
2023-11-14T05:17:58.282Z,2.17
2023-11-14T05:20:26.218Z,2.22
2023-11-14T05:22:54.162Z,2.22
2023-11-14T05:25:21.863Z,2.21
2023-11-14T05:27:51.250Z,2.22
2023-11-14T05:30:18.961Z,2.24
2023-11-14T05:32:49.687Z,2.23
2023-11-14T05:35:18.056Z,2.22
2023-11-14T05:37:45.920Z,2.24
2023-11-14T05:40:16.434Z,2.26
2023-11-14T05:42:44.123Z,2.24
2023-11-14T05:45:12.349Z,2.19
2023-11-14T05:47:40.052Z,2.17
2023-11-14T05:50:08.805Z,2.16
2023-11-14T05:52:36.685Z,2.17
2023-11-14T05:55:05.012Z,2.19
2023-11-14T05:57:32.670Z,2.23
2023-11-14T06:00:00.335Z,2.29
2023-11-14T06:02:28.136Z,2.39
2023-11-14T06:05:00.664Z,2.54
2023-11-14T06:07:30.128Z,2.66
2023-11-14T06:09:57.835Z,2.79
2023-11-14T06:12:25.857Z,2.91
2023-11-14T06:14:53.513Z,3.01
2023-11-14T06:17:21.221Z,3.08
2023-11-14T06:19:48.901Z,3.13
2023-11-14T06:22:16.618Z,3.20
2023-11-14T06:24:44.376Z,3.31
2023-11-14T06:27:12.086Z,3.42
2023-11-14T06:29:40.265Z,3.55
2023-11-14T06:32:08.245Z,3.69
2023-11-14T06:34:36.021Z,3.81
2023-11-14T06:37:03.790Z,3.97
2023-11-14T06:39:31.426Z,4.14
2023-11-14T06:42:00.231Z,4.30
2023-11-14T06:44:27.974Z,4.46
2023-11-14T06:46:55.668Z,4.66
2023-11-14T06:49:24.505Z,4.85
2023-11-14T06:51:52.644Z,5.01
2023-11-14T06:54:20.390Z,5.18
2023-11-14T06:56:48.099Z,5.37
2023-11-14T06:59:15.821Z,5.52
2023-11-14T07:01:43.500Z,5.60
2023-11-14T07:04:11.643Z,5.74
2023-11-14T07:06:39.327Z,5.89
2023-11-14T07:09:07.096Z,6.04
2023-11-14T07:11:34.749Z,6.16
2023-11-14T07:14:02.496Z,6.24
2023-11-14T07:16:30.209Z,6.29
2023-11-14T07:18:57.917Z,6.35
2023-11-14T07:21:25.544Z,6.38
2023-11-14T07:23:53.297Z,6.47
2023-11-14T07:26:21.130Z,6.61
2023-11-14T07:28:49.010Z,6.74
2023-11-14T07:31:18.048Z,6.89
2023-11-14T07:33:46.238Z,7.06
2023-11-14T07:36:13.968Z,7.24
2023-11-14T07:38:44.564Z,7.40
2023-11-14T07:41:12.309Z,7.55
2023-11-14T07:43:40.857Z,7.69
2023-11-14T07:46:10.509Z,7.83
2023-11-14T07:48:38.316Z,7.95
2023-11-14T07:51:06.038Z,8.07
2023-11-14T07:53:33.745Z,8.16
2023-11-14T07:56:01.833Z,8.26
2023-11-14T07:58:30.725Z,8.36
2023-11-14T08:00:58.673Z,8.48
2023-11-14T08:03:26.604Z,8.61
2023-11-14T08:05:54.462Z,8.70
2023-11-14T08:08:22.163Z,8.76
2023-11-14T08:10:49.884Z,8.80
2023-11-14T08:13:18.047Z,8.85
2023-11-14T08:15:46.001Z,8.94
2023-11-14T08:18:14.502Z,9.03
2023-11-14T08:20:42.255Z,9.10
2023-11-14T08:23:10.044Z,9.18
2023-11-14T08:25:37.728Z,9.27
2023-11-14T08:28:06.084Z,9.36
2023-11-14T08:30:33.828Z,9.41
2023-11-14T08:33:01.558Z,9.45
2023-11-14T08:35:29.324Z,9.50
2023-11-14T08:38:07.259Z,9.57
2023-11-14T08:40:41.944Z,9.65
2023-11-14T08:43:09.732Z,9.70
2023-11-14T08:45:37.532Z,9.75
2023-11-14T08:48:05.424Z,9.82
2023-11-14T08:50:36.913Z,9.88
2023-11-14T08:53:05.306Z,9.93
2023-11-14T08:55:33.223Z,9.99
2023-11-14T08:58:03.895Z,10.03
2023-11-14T09:00:31.811Z,10.08
2023-11-14T09:03:02.608Z,10.13
2023-11-14T09:05:30.824Z,10.18
2023-11-14T09:07:58.613Z,10.22
2023-11-14T09:10:26.367Z,10.22
2023-11-14T09:12:54.177Z,10.19
2023-11-14T09:15:21.992Z,10.12
2023-11-14T09:17:54.473Z,10.05
2023-11-14T09:20:24.602Z,10.04
2023-11-14T09:22:52.742Z,10.07
2023-11-14T09:25:21.925Z,10.11
2023-11-14T09:27:49.847Z,10.16
2023-11-14T09:30:18.733Z,10.21
2023-11-14T09:32:47.699Z,10.27
2023-11-14T09:35:17.063Z,10.33
2023-11-14T09:37:45.270Z,10.38
2023-11-14T09:40:21.705Z,10.43
2023-11-14T09:42:53.358Z,10.48
2023-11-14T09:45:21.743Z,10.56
2023-11-14T09:47:51.292Z,10.63
2023-11-14T09:50:19.288Z,10.60
2023-11-14T09:52:47.277Z,10.54
2023-11-14T09:55:16.186Z,10.55
2023-11-14T09:57:49.883Z,10.61
2023-11-14T10:00:19.853Z,10.64
2023-11-14T10:02:48.186Z,10.65
2023-11-14T10:05:17.864Z,10.60
2023-11-14T10:07:46.797Z,10.58
2023-11-14T10:10:15.434Z,10.58
2023-11-14T10:12:43.697Z,10.52
2023-11-14T10:15:11.592Z,10.40
2023-11-14T10:17:48.044Z,10.33
2023-11-14T10:20:21.188Z,10.35
2023-11-14T10:22:59.121Z,10.34
2023-11-14T10:25:39.828Z,10.26
2023-11-14T10:28:08.089Z,10.14
2023-11-14T10:30:50.326Z,10.05
2023-11-14T10:33:18.731Z,10.03
2023-11-14T10:35:47.095Z,10.09
2023-11-14T10:38:28.859Z,10.20
2023-11-14T10:40:57.575Z,10.31
2023-11-14T10:43:38.398Z,10.35
2023-11-14T10:46:11.608Z,10.39
2023-11-14T10:48:39.492Z,10.49
2023-11-14T10:51:11.312Z,10.61
2023-11-14T10:53:41.093Z,10.66
2023-11-14T10:56:12.734Z,10.66
2023-11-14T10:58:40.805Z,10.66
2023-11-14T11:01:09.418Z,10.66
2023-11-14T11:03:38.506Z,10.67
2023-11-14T11:06:07.287Z,10.70
2023-11-14T11:08:35.878Z,10.74
2023-11-14T11:11:07.931Z,10.80
2023-11-14T11:13:37.065Z,10.87
2023-11-14T11:16:05.552Z,10.92
2023-11-14T11:18:38.950Z,10.91
2023-11-14T11:21:15.778Z,10.84
2023-11-14T11:24:06.693Z,10.76
2023-11-14T11:26:54.437Z,10.71
2023-11-14T11:30:06.130Z,10.69
2023-11-14T11:32:37.536Z,10.62
2023-11-14T11:35:19.488Z,10.55
2023-11-14T11:37:48.337Z,10.45
2023-11-14T11:40:18.976Z,10.35
2023-11-14T11:42:46.879Z,10.23
2023-11-14T11:45:34.883Z,10.14
2023-11-14T11:48:04.124Z,10.05
2023-11-14T11:50:36.794Z,9.95
2023-11-14T11:53:06.388Z,9.90
2023-11-14T11:55:36.881Z,9.86
2023-11-14T11:58:09.823Z,9.84
2023-11-14T12:00:37.799Z,9.81
2023-11-14T12:03:07.044Z,9.80
2023-11-14T12:05:35.294Z,9.79
2023-11-14T12:08:05.933Z,9.82
2023-11-14T12:10:35.374Z,9.81
2023-11-14T12:13:05.922Z,9.79
2023-11-14T12:15:34.025Z,9.79
2023-11-14T12:18:04.558Z,9.80
2023-11-14T12:20:33.741Z,9.83
2023-11-14T12:23:01.771Z,9.86
2023-11-14T12:25:29.490Z,9.88
2023-11-14T12:28:02.624Z,9.92
2023-11-14T12:30:31.045Z,9.95
2023-11-14T12:33:08.471Z,9.98
2023-11-14T12:35:51.950Z,10.02
2023-11-14T12:38:38.620Z,10.05
2023-11-14T12:41:26.797Z,10.04
2023-11-14T12:44:07.892Z,10.04
2023-11-14T12:46:38.744Z,10.01
2023-11-14T12:49:19.602Z,9.97
2023-11-14T12:51:53.562Z,9.92
2023-11-14T12:54:23.287Z,9.88
2023-11-14T12:56:53.401Z,9.84
2023-11-14T12:59:21.775Z,9.79
2023-11-14T13:01:52.015Z,9.72
2023-11-14T13:04:20.402Z,9.65
2023-11-14T13:06:49.102Z,9.57
2023-11-14T13:09:18.494Z,9.51
2023-11-14T13:11:46.932Z,9.46
2023-11-14T13:14:15.323Z,9.41
2023-11-14T13:16:45.046Z,9.35
2023-11-14T13:19:14.118Z,9.29
2023-11-14T13:21:41.993Z,9.24
2023-11-14T13:24:09.838Z,9.21
2023-11-14T13:26:38.204Z,9.17
2023-11-14T13:29:07.757Z,9.14
2023-11-14T13:31:36.052Z,9.12
2023-11-14T13:34:04.149Z,9.10
2023-11-14T13:36:32.064Z,9.08
2023-11-14T13:38:59.843Z,9.05
2023-11-14T13:41:29.930Z,9.02
2023-11-14T13:43:57.960Z,9.00
2023-11-14T13:46:28.579Z,8.98
2023-11-14T13:48:57.330Z,8.97
2023-11-14T13:51:26.169Z,8.95
2023-11-14T13:53:54.445Z,8.92
2023-11-14T13:56:23.086Z,8.88
2023-11-14T13:58:51.407Z,8.85
2023-11-14T14:01:19.680Z,8.83
2023-11-14T14:03:48.006Z,8.80
2023-11-14T14:06:15.914Z,8.78
2023-11-14T14:08:44.014Z,8.76
2023-11-14T14:11:12.940Z,8.74
2023-11-14T14:13:41.293Z,8.74
2023-11-14T14:16:09.834Z,8.71
2023-11-14T14:18:40.008Z,8.69
2023-11-14T14:21:08.391Z,8.66
2023-11-14T14:23:36.669Z,8.66
2023-11-14T14:26:07.365Z,8.64
2023-11-14T14:28:40.149Z,8.62
2023-11-14T14:31:10.662Z,8.61
2023-11-14T14:33:39.979Z,8.59
2023-11-14T14:36:08.228Z,8.56
2023-11-14T14:38:36.017Z,8.54
2023-11-14T14:41:04.019Z,8.52
2023-11-14T14:43:32.510Z,8.51
2023-11-14T14:46:00.392Z,8.48
2023-11-14T14:48:28.221Z,8.46
2023-11-14T14:50:55.904Z,8.45
2023-11-14T14:53:25.084Z,8.43
2023-11-14T14:55:53.313Z,8.42
2023-11-14T14:58:21.859Z,8.41
2023-11-14T15:00:49.844Z,8.41
2023-11-14T15:03:22.376Z,8.40
2023-11-14T15:05:51.946Z,8.38
2023-11-14T15:08:21.111Z,8.37
2023-11-14T15:10:50.729Z,8.36
2023-11-14T15:13:20.549Z,8.36
2023-11-14T15:15:52.261Z,8.36
2023-11-14T15:18:20.666Z,8.35
2023-11-14T15:20:51.132Z,8.35
2023-11-14T15:23:19.064Z,8.34
2023-11-14T15:25:48.738Z,8.32
2023-11-14T15:28:16.663Z,8.32
2023-11-14T15:30:45.080Z,8.32
2023-11-14T15:33:13.062Z,8.32
2023-11-14T15:35:41.069Z,8.32
2023-11-14T15:38:09.722Z,8.32
2023-11-14T15:40:37.409Z,8.32
2023-11-14T15:43:05.141Z,8.31
2023-11-14T15:45:32.982Z,8.29
2023-11-14T15:48:00.787Z,8.28
2023-11-14T15:50:28.536Z,8.28
2023-11-14T15:52:56.354Z,8.27
2023-11-14T15:55:25.106Z,8.27
2023-11-14T15:57:53.771Z,8.26
2023-11-14T16:00:21.659Z,8.25
2023-11-14T16:02:50.061Z,8.25
2023-11-14T16:05:18.673Z,8.26
2023-11-14T16:07:46.485Z,8.25
2023-11-14T16:10:14.383Z,8.27
2023-11-14T16:12:42.247Z,8.28
2023-11-14T16:15:11.358Z,8.28
2023-11-14T16:17:40.068Z,8.28
2023-11-14T16:20:08.614Z,8.28
2023-11-14T16:22:39.020Z,8.29
2023-11-14T16:25:07.270Z,8.29
2023-11-14T16:27:35.085Z,8.29
2023-11-14T16:30:02.805Z,8.31
2023-11-14T16:32:30.560Z,8.31
2023-11-14T16:34:59.931Z,8.31
2023-11-14T16:37:27.678Z,8.32
2023-11-14T16:39:55.431Z,8.34
2023-11-14T16:42:23.307Z,8.35
2023-11-14T16:44:51.497Z,8.37
2023-11-14T16:47:19.253Z,8.39
2023-11-14T16:49:48.696Z,8.41
2023-11-14T16:52:17.330Z,8.43
2023-11-14T16:54:45.399Z,8.44
2023-11-14T16:57:13.353Z,8.46
2023-11-14T16:59:44.470Z,8.46
2023-11-14T17:02:13.055Z,8.46
2023-11-14T17:04:41.257Z,8.46
2023-11-14T17:07:09.439Z,8.45
2023-11-14T17:09:37.399Z,8.43
2023-11-14T17:12:06.611Z,8.43
2023-11-14T17:14:34.474Z,8.42
2023-11-14T17:17:03.061Z,8.41
2023-11-14T17:19:31.401Z,8.40
2023-11-14T17:21:59.091Z,8.38
2023-11-14T17:24:27.661Z,8.34
2023-11-14T17:26:55.961Z,8.30
2023-11-14T17:29:23.706Z,8.26
2023-11-14T17:31:53.783Z,8.21
2023-11-14T17:34:21.840Z,8.16
2023-11-14T17:36:49.623Z,8.09
2023-11-14T17:39:17.363Z,8.00
2023-11-14T17:41:46.099Z,7.93
2023-11-14T17:44:14.305Z,7.86
2023-11-14T17:46:42.172Z,7.79
2023-11-14T17:49:14.169Z,7.74
2023-11-14T17:51:43.457Z,7.69
2023-11-14T17:54:11.792Z,7.66
2023-11-14T17:56:39.765Z,7.64
2023-11-14T17:59:07.699Z,7.61
2023-11-14T18:01:35.724Z,7.58
2023-11-14T18:04:03.993Z,7.56
2023-11-14T18:06:32.251Z,7.53
2023-11-14T18:09:00.134Z,7.49
2023-11-14T18:11:27.914Z,7.47
2023-11-14T18:13:55.729Z,7.46
2023-11-14T18:16:24.270Z,7.44
2023-11-14T18:18:52.166Z,7.42
2023-11-14T18:21:19.864Z,7.42
2023-11-14T18:23:47.642Z,7.41
2023-11-14T18:26:15.355Z,7.40
2023-11-14T18:28:43.113Z,7.39
2023-11-14T18:31:12.158Z,7.38
2023-11-14T18:33:39.958Z,7.38
2023-11-14T18:36:10.167Z,7.37
2023-11-14T18:38:40.809Z,7.36
2023-11-14T18:41:09.471Z,7.35
2023-11-14T18:43:37.314Z,7.35
2023-11-14T18:46:05.172Z,7.34
2023-11-14T18:48:34.544Z,7.34
2023-11-14T18:51:02.437Z,7.35
2023-11-14T18:53:30.221Z,7.35
2023-11-14T18:55:57.928Z,7.37
2023-11-14T18:58:25.629Z,7.39
2023-11-14T19:01:00.642Z,7.41
2023-11-14T19:03:29.230Z,7.42
2023-11-14T19:05:57.245Z,7.45
2023-11-14T19:08:25.045Z,7.48
2023-11-14T19:10:53.426Z,7.51
2023-11-14T19:13:21.465Z,7.55
2023-11-14T19:15:49.301Z,7.60
2023-11-14T19:18:19.456Z,7.65
2023-11-14T19:23:41.576Z,7.78
2023-11-14T19:26:09.826Z,7.85
2023-11-14T19:28:38.486Z,7.91
2023-11-14T19:31:06.343Z,7.96
2023-11-14T19:33:34.051Z,7.99
2023-11-14T19:36:01.794Z,8.04
2023-11-14T19:38:32.144Z,8.08
2023-11-14T19:40:59.969Z,8.12
2023-11-14T19:43:29.903Z,8.15
2023-11-14T19:46:00.026Z,8.18
2023-11-14T19:48:27.821Z,8.23
2023-11-14T19:50:56.691Z,8.26
2023-11-14T19:53:24.518Z,8.29
2023-11-14T19:55:52.249Z,8.33
2023-11-14T19:58:19.973Z,8.36
2023-11-14T20:00:47.956Z,8.40
2023-11-14T20:03:15.792Z,8.46
2023-11-14T20:05:43.707Z,8.50
2023-11-14T20:08:11.572Z,8.53
2023-11-14T20:10:39.371Z,8.57
2023-11-14T20:13:07.277Z,8.61
2023-11-14T20:15:35.113Z,8.64
2023-11-14T20:18:04.733Z,8.67
2023-11-14T20:20:33.760Z,8.72
2023-11-14T20:23:01.616Z,8.75
2023-11-14T20:25:31.136Z,8.79
2023-11-14T20:28:00.542Z,8.84
2023-11-14T20:30:28.266Z,8.88
2023-11-14T20:32:56.184Z,8.93
2023-11-14T20:35:24.930Z,8.98
2023-11-14T20:37:54.263Z,9.00
2023-11-14T20:40:23.377Z,9.03
2023-11-14T20:42:51.680Z,9.07
2023-11-14T20:45:20.211Z,9.11
2023-11-14T20:47:48.067Z,9.13
2023-11-14T20:50:16.798Z,9.15
2023-11-14T20:52:47.076Z,9.17
2023-11-14T20:55:15.498Z,9.19
2023-11-14T20:57:43.327Z,9.19
2023-11-14T21:00:12.685Z,9.20
2023-11-14T21:02:40.674Z,9.22
2023-11-14T21:05:08.959Z,9.24
2023-11-14T21:07:36.852Z,9.24
2023-11-14T21:10:06.580Z,9.25
2023-11-14T21:12:34.836Z,9.26
2023-11-14T21:15:02.891Z,9.27
2023-11-14T21:17:42.671Z,9.29
2023-11-14T21:20:18.983Z,9.30
2023-11-14T21:22:47.212Z,9.31
2023-11-14T21:25:15.405Z,9.31
2023-11-14T21:27:43.122Z,9.32
2023-11-14T21:30:11.021Z,9.31
2023-11-14T21:32:40.724Z,9.30
2023-11-14T21:35:09.754Z,9.30
2023-11-14T21:37:38.749Z,9.29
2023-11-14T21:40:08.090Z,9.29
2023-11-14T21:42:35.711Z,9.29
2023-11-14T21:45:03.634Z,9.30
2023-11-14T21:47:31.337Z,9.30
2023-11-14T21:49:59.085Z,9.30
2023-11-14T21:52:26.915Z,9.32
2023-11-14T21:54:54.587Z,9.33
2023-11-14T21:57:22.277Z,9.35
2023-11-14T21:59:51.723Z,9.36
2023-11-14T22:02:19.752Z,9.37
2023-11-14T22:04:48.840Z,9.37
2023-11-14T22:07:16.573Z,9.37
2023-11-14T22:09:44.263Z,9.35
2023-11-14T22:12:12.248Z,9.35
2023-11-14T22:14:40.118Z,9.35
2023-11-14T22:17:08.468Z,9.34
2023-11-14T22:19:36.148Z,9.34
2023-11-14T22:22:03.842Z,9.33
2023-11-14T22:24:31.544Z,9.33
2023-11-14T22:26:59.211Z,9.32
2023-11-14T22:29:26.914Z,9.31
2023-11-14T22:31:54.752Z,9.29
2023-11-14T22:34:22.457Z,9.28
2023-11-14T22:36:50.177Z,9.26
2023-11-14T22:39:19.220Z,9.23
2023-11-14T22:41:47.100Z,9.21
2023-11-14T22:44:14.796Z,9.18
2023-11-14T22:46:43.461Z,9.13
2023-11-14T22:49:11.116Z,9.08
2023-11-14T22:51:38.806Z,9.03
2023-11-14T22:54:07.007Z,8.99
2023-11-14T22:56:34.784Z,8.97
2023-11-14T22:59:02.765Z,8.95
2023-11-14T23:01:38.337Z,8.95
2023-11-14T23:04:09.858Z,8.94
2023-11-14T23:06:40.934Z,8.94
2023-11-14T23:09:16.249Z,8.93
2023-11-14T23:11:45.672Z,8.92
2023-11-14T23:14:15.924Z,8.91
2023-11-14T23:16:44.501Z,8.89
2023-11-14T23:19:12.277Z,8.86
2023-11-14T23:21:46.038Z,8.84
2023-11-14T23:24:22.020Z,8.83
2023-11-14T23:26:49.983Z,8.82
2023-11-14T23:29:17.847Z,8.82
2023-11-14T23:31:45.562Z,8.83
2023-11-14T23:34:13.291Z,8.83
2023-11-14T23:36:40.980Z,8.81
2023-11-14T23:39:08.807Z,8.80
2023-11-14T23:41:37.550Z,8.79
2023-11-14T23:44:05.977Z,8.78
2023-11-14T23:46:33.726Z,8.75
2023-11-14T23:49:03.505Z,8.72
2023-11-14T23:51:32.716Z,8.70
2023-11-14T23:54:01.487Z,8.68
2023-11-14T23:56:29.241Z,8.67
2023-11-14T23:58:56.916Z,8.66
